Time;durP1;ratioP1;P1;durP2;ratioP2;P2;SDS_P1;SDS_P2;PMS_P1;PMS_P2;Temp;Humidity;BMP_temperature;BMP_pressure;BME280_temperature;BME280_humidity;BME280_pressure;Samples;Min_cycle;Max_cycle;Signal;HPM_P1;HPM_P2
2022/11/26 00:00:11;;;;;;;770.00;710.88;;;;;;;8.32;72.58;101716.53;691520;28;138129;-67
2022/11/26 00:00:33;;;;;;;781.10;721.70;;;;;;;8.34;72.73;101725.31;689979;28;113560;-68
2022/11/26 00:00:56;;;;;;;789.30;729.72;;;;;;;8.30;72.29;101720.22;692267;28;45252;-67
2022/11/26 00:01:18;;;;;;;778.40;719.03;;;;;;;8.31;72.50;101715.69;690308;28;67535;-67
2022/11/26 00:01:40;;;;;;;773.08;714.03;;;;;;;8.31;72.32;101721.09;692264;28;46330;-67
2022/11/26 00:02:09;;;;;;;781.42;721.97;;;;;;;8.33;72.89;101719.09;693548;28;45242;-67
2022/11/26 00:02:30;;;;;;;802.95;742.90;;;;;;;8.34;72.70;101720.81;687690;28;159146;-67
2022/11/26 00:02:53;;;;;;;816.78;756.45;;;;;;;8.30;72.96;101708.59;691969;28;45364;-67
2022/11/26 00:03:14;;;;;;;809.00;748.80;;;;;;;8.32;72.71;101720.06;691959;28;46304;-68
2022/11/26 00:03:36;;;;;;;774.50;715.33;;;;;;;8.33;72.90;101710.19;691981;28;45228;-68
2022/11/26 00:04:01;;;;;;;803.60;743.75;;;;;;;8.34;73.04;101720.81;692734;28;24323;-68
2022/11/26 00:04:24;;;;;;;813.28;753.08;;;;;;;8.35;73.15;101719.81;690242;28;138920;-67
2022/11/26 00:04:45;;;;;;;816.85;756.70;;;;;;;8.34;73.14;101712.72;694865;28;45089;-68
2022/11/26 00:05:12;;;;;;;810.75;750.55;;;;;;;8.34;73.09;101712.72;694366;28;46393;-67
2022/11/26 00:05:33;;;;;;;776.03;716.80;;;;;;;8.34;72.79;101714.56;691432;28;136438;-67
2022/11/26 00:05:57;;;;;;;813.97;753.67;;;;;;;8.34;72.57;101717.25;694954;28;46170;-67
2022/11/26 00:06:26;;;;;;;825.42;764.83;;;;;;;8.33;72.61;101720.94;691861;28;110967;-68
2022/11/26 00:06:48;;;;;;;839.95;778.97;;;;;;;8.37;73.01;101719.66;691439;28;137444;-67
2022/11/26 00:07:10;;;;;;;772.15;713.08;;;;;;;8.36;73.10;101712.59;695677;28;21530;-67
2022/11/26 00:07:31;;;;;;;782.90;723.28;;;;;;;8.36;72.79;101712.59;693602;28;67530;-67
2022/11/26 00:07:56;;;;;;;788.50;728.47;;;;;;;8.36;73.27;101717.97;690961;28;21443;-67
2022/11/26 00:08:20;;;;;;;783.35;723.65;;;;;;;8.27;73.19;101709.72;688330;28;113586;-67
2022/11/26 00:08:41;;;;;;;779.65;720.17;;;;;;;8.35;72.94;101708.19;688887;28;92149;-68
2022/11/26 00:09:04;;;;;;;772.08;713.00;;;;;;;8.36;73.15;101716.13;692791;28;21335;-68
2022/11/26 00:09:27;;;;;;;784.22;724.75;;;;;;;8.37;73.26;101722.34;691190;28;69442;-67
2022/11/26 00:09:48;;;;;;;767.25;708.25;;;;;;;8.36;73.08;101712.59;692080;28;69513;-68
2022/11/26 00:10:16;;;;;;;801.88;741.90;;;;;;;8.36;73.04;101726.91;692734;28;20203;-68
2022/11/26 00:10:38;;;;;;;837.35;776.45;;;;;;;8.37;73.48;101715.16;688604;28;137815;-68
2022/11/26 00:11:00;;;;;;;833.97;773.28;;;;;;;8.36;73.31;101715.28;691995;28;21342;-68
2022/11/26 00:11:23;;;;;;;834.83;774.00;;;;;;;8.36;73.17;101712.59;690945;28;67327;-67
2022/11/26 00:11:44;;;;;;;836.60;775.75;;;;;;;8.36;73.05;101707.22;691684;28;46225;-67
2022/11/26 00:12:14;;;;;;;790.28;730.75;;;;;;;8.36;72.92;101715.28;693722;28;46362;-68
2022/11/26 00:12:35;;;;;;;785.67;726.17;;;;;;;8.37;73.31;101715.16;691546;28;136093;-68
2022/11/26 00:12:58;;;;;;;768.08;709.00;;;;;;;8.39;73.67;101715.84;695779;28;22199;-67
2022/11/26 00:13:21;;;;;;;820.67;760.17;;;;;;;8.39;73.93;101715.00;694850;28;46559;-67
2022/11/26 00:13:42;;;;;;;818.75;758.35;;;;;;;8.40;73.59;101722.94;692309;28;68652;-67
2022/11/26 00:14:07;;;;;;;825.30;764.80;;;;;;;8.39;73.70;101715.00;695615;28;21598;-67
2022/11/26 00:14:30;;;;;;;782.95;723.47;;;;;;;8.38;73.12;101719.53;690861;28;115907;-67
2022/11/26 00:14:52;;;;;;;770.35;711.13;;;;;;;8.37;73.00;101712.47;691849;28;45155;-68
2022/11/26 00:15:16;;;;;;;774.53;715.22;;;;;;;8.37;72.79;101714.28;691144;28;69332;-68
2022/11/26 00:15:37;;;;;;;781.80;722.45;;;;;;;8.36;72.98;101720.66;692825;28;67557;-68
2022/11/26 00:15:59;;;;;;;816.50;756.17;;;;;;;8.36;73.07;101717.97;694055;28;44273;-68
2022/11/26 00:16:21;;;;;;;822.03;761.55;;;;;;;8.35;72.91;101719.81;694729;28;45263;-68
2022/11/26 00:16:42;;;;;;;833.95;773.13;;;;;;;8.36;72.97;101720.66;695456;28;22415;-68
2022/11/26 00:17:03;;;;;;;782.25;722.83;;;;;;;8.36;73.02;101717.97;694832;28;47449;-68
2022/11/26 00:17:24;;;;;;;786.17;726.70;;;;;;;8.35;72.95;101718.97;695719;28;22369;-68
2022/11/26 00:17:47;;;;;;;804.13;744.15;;;;;;;8.35;72.87;101718.97;695712;28;22414;-68
2022/11/26 00:18:08;;;;;;;777.47;718.25;;;;;;;8.34;72.58;101723.50;694004;28;68444;-67
2022/11/26 00:18:29;;;;;;;775.97;716.92;;;;;;;8.27;72.72;101712.41;692964;28;23486;-68
2022/11/26 00:18:50;;;;;;;763.38;704.47;;;;;;;8.33;72.73;101719.09;692758;28;21553;-68
2022/11/26 00:19:13;;;;;;;794.45;734.75;;;;;;;8.32;72.25;101722.75;691611;28;45106;-68
2022/11/26 00:19:34;;;;;;;806.10;746.08;;;;;;;8.32;72.25;101717.38;692493;28;44266;-68
2022/11/26 00:19:55;;;;;;;819.67;759.28;;;;;;;8.34;72.22;101718.13;691963;28;22411;-67
2022/11/26 00:20:17;;;;;;;788.33;728.75;;;;;;;8.33;72.37;101723.63;693006;28;22272;-67
2022/11/26 00:20:39;;;;;;;780.58;721.20;;;;;;;8.35;72.44;101725.19;692127;28;45277;-68
2022/11/26 00:21:01;;;;;;;793.95;734.13;;;;;;;8.36;72.72;101723.38;690520;28;67464;-68
2022/11/26 00:21:24;;;;;;;779.10;719.78;;;;;;;8.37;72.90;101720.53;694830;28;21544;-67
2022/11/26 00:21:45;;;;;;;770.30;711.25;;;;;;;8.37;73.10;101720.53;694092;28;69612;-68
2022/11/26 00:22:14;;;;;;;768.00;708.90;;;;;;;8.37;73.11;101717.84;695802;28;21561;-68
2022/11/26 00:22:39;;;;;;;809.13;749.03;;;;;;;8.36;73.01;101726.91;690962;28;160775;-68
2022/11/26 00:23:03;;;;;;;792.25;732.58;;;;;;;8.35;73.03;101725.19;691498;28;137948;-68
2022/11/26 00:23:25;;;;;;;772.38;713.20;;;;;;;8.36;72.93;101726.91;694289;28;67518;-67
2022/11/26 00:23:49;;;;;;;787.67;728.22;;;;;;;8.37;73.19;101725.03;693998;28;67542;-67
2022/11/26 00:24:23;;;;;;;779.45;720.13;;;;;;;8.37;72.78;101733.13;694099;28;69298;-68
2022/11/26 00:24:44;;;;;;;783.83;724.35;;;;;;;8.36;72.85;101724.19;691096;28;137176;-68
2022/11/26 00:25:11;;;;;;;769.92;710.63;;;;;;;8.37;73.46;101731.31;695057;28;22413;-67
2022/11/26 00:25:42;;;;;;;780.28;721.08;;;;;;;8.38;73.21;101732.97;691820;28;136463;-68
2022/11/26 00:26:12;;;;;;;789.35;729.83;;;;;;;8.38;73.24;101724.91;690734;28;137537;-68
2022/11/26 00:26:35;;;;;;;813.25;752.88;;;;;;;8.37;73.49;101728.59;688773;28;138095;-67
2022/11/26 00:26:58;;;;;;;789.85;730.22;;;;;;;8.36;73.23;101729.59;692198;28;70148;-68
2022/11/26 00:27:19;;;;;;;780.58;721.17;;;;;;;8.37;73.17;101727.75;690413;28;67522;-68
2022/11/26 00:27:42;;;;;;;780.78;721.47;;;;;;;8.36;72.76;101726.91;691796;28;46351;-68
2022/11/26 00:28:19;;;;;;;810.22;750.08;;;;;;;8.37;73.26;101731.31;691983;28;44462;-67
2022/11/26 00:28:47;;;;;;;798.35;738.50;;;;;;;8.36;72.72;101731.44;688721;28;137719;-67
2022/11/26 00:29:10;;;;;;;768.03;708.95;;;;;;;8.37;72.83;101733.13;689730;28;132080;-68
2022/11/26 00:29:31;;;;;;;786.17;726.63;;;;;;;8.37;73.31;101725.91;694728;28;45144;-68
2022/11/26 00:29:53;;;;;;;796.42;736.72;;;;;;;8.37;73.13;101730.44;694941;28;46288;-67
2022/11/26 00:30:19;;;;;;;788.70;729.10;;;;;;;8.38;72.95;101732.13;695756;28;23492;-67
2022/11/26 00:30:41;;;;;;;802.65;742.75;;;;;;;8.38;73.00;101727.59;691649;28;136374;-68
2022/11/26 00:31:04;;;;;;;787.10;727.55;;;;;;;8.35;72.83;101727.88;693818;28;44388;-67
2022/11/26 00:31:26;;;;;;;780.08;720.65;;;;;;;8.38;73.17;101730.28;694082;28;70210;-67
2022/11/26 00:31:49;;;;;;;795.45;735.72;;;;;;;8.37;72.95;101727.75;694859;28;45269;-67
2022/11/26 00:32:15;;;;;;;832.10;771.47;;;;;;;8.36;72.61;101729.59;694209;28;67493;-67
2022/11/26 00:32:36;;;;;;;797.15;737.65;;;;;;;8.37;72.91;101728.59;692442;28;114886;-67
2022/11/26 00:32:58;;;;;;;794.80;735.17;;;;;;;8.38;73.41;101734.84;694862;28;46189;-67
2022/11/26 00:33:19;;;;;;;790.67;731.15;;;;;;;8.39;73.27;101725.78;694720;28;47556;-67
2022/11/26 00:33:41;;;;;;;783.92;724.53;;;;;;;8.39;73.15;101729.31;696732;28;21206;-68
2022/11/26 00:34:02;;;;;;;804.88;745.00;;;;;;;8.40;73.23;101731.03;697053;28;21511;-67
2022/11/26 00:34:23;;;;;;;819.97;759.63;;;;;;;8.42;73.73;101730.88;693366;28;46515;-67
2022/11/26 00:34:46;;;;;;;786.83;727.35;;;;;;;8.40;73.14;101733.72;695673;28;20980;-67
2022/11/26 00:35:07;;;;;;;782.88;723.38;;;;;;;8.41;73.36;101729.16;693964;28;69427;-68
2022/11/26 00:35:28;;;;;;;763.92;705.00;;;;;;;8.40;73.01;101744.47;695560;28;21531;-68
2022/11/26 00:35:53;;;;;;;795.80;736.08;;;;;;;8.39;73.28;101734.69;693644;28;46360;-67
2022/11/26 00:36:18;;;;;;;816.05;755.85;;;;;;;8.40;73.38;101732.84;664901;28;90341;-67
2022/11/26 00:36:40;;;;;;;790.60;731.03;;;;;;;8.38;73.07;101735.69;689631;28;113593;-67
2022/11/26 00:37:02;;;;;;;779.00;719.65;;;;;;;8.37;72.89;101733.13;691122;28;69428;-68
2022/11/26 00:37:26;;;;;;;788.88;729.28;;;;;;;8.36;72.95;101734.97;692516;28;22413;-68
2022/11/26 00:37:50;;;;;;;825.65;765.10;;;;;;;8.37;73.01;101736.69;690295;28;93258;-68
2022/11/26 00:38:15;;;;;;;773.13;713.80;;;;;;;8.38;72.86;101737.53;691323;28;113567;-68
2022/11/26 00:38:37;;;;;;;788.05;728.67;;;;;;;8.37;73.03;101735.81;692587;28;113568;-68
2022/11/26 00:39:01;;;;;;;763.88;705.28;;;;;;;8.37;73.06;101742.06;695586;28;21549;-68
2022/11/26 00:39:24;;;;;;;775.50;716.42;;;;;;;8.38;73.02;101748.28;693349;28;90823;-68
2022/11/26 00:39:45;;;;;;;813.45;753.28;;;;;;;8.36;72.74;101745.75;693958;28;68163;-68
2022/11/26 00:40:14;;;;;;;822.55;762.03;;;;;;;8.40;73.16;101746.31;694885;28;45161;-68
2022/11/26 00:40:35;;;;;;;800.35;740.47;;;;;;;8.39;73.06;101739.25;691634;28;139033;-68
2022/11/26 00:40:58;;;;;;;785.75;726.20;;;;;;;8.39;73.17;101747.31;694897;28;23463;-67
2022/11/26 00:41:21;;;;;;;785.53;726.08;;;;;;;8.38;73.16;101743.75;694060;28;69271;-67
2022/11/26 00:41:46;;;;;;;779.95;720.65;;;;;;;8.40;73.61;101739.09;693624;28;69441;-67
2022/11/26 00:42:09;;;;;;;788.85;729.28;;;;;;;8.40;73.15;101738.22;692464;28;113590;-67
2022/11/26 00:42:31;;;;;;;812.03;751.88;;;;;;;8.42;73.73;101742.50;693939;28;69459;-67
2022/11/26 00:42:53;;;;;;;781.55;722.25;;;;;;;8.42;73.43;101749.72;694868;28;44836;-67
2022/11/26 00:43:15;;;;;;;786.63;727.15;;;;;;;8.41;73.44;101751.56;694914;28;46311;-68
2022/11/26 00:43:36;;;;;;;783.40;724.00;;;;;;;8.41;73.44;101748.84;694811;28;44210;-67
2022/11/26 00:43:59;;;;;;;823.95;763.45;;;;;;;8.42;73.39;101750.56;695476;28;21191;-67
2022/11/26 00:44:22;;;;;;;789.70;730.05;;;;;;;8.42;73.28;101747.88;694000;28;67288;-68
2022/11/26 00:44:43;;;;;;;783.78;724.35;;;;;;;8.43;73.74;101751.41;693931;28;69390;-67
2022/11/26 00:45:16;;;;;;;800.63;740.63;;;;;;;8.42;73.36;101758.66;694778;28;44383;-67
2022/11/26 00:45:38;;;;;;;779.33;719.97;;;;;;;8.42;73.23;101752.41;691389;28;137483;-67
2022/11/26 00:46:00;;;;;;;776.25;716.97;;;;;;;8.42;73.31;101755.97;680917;28;23438;-67
2022/11/26 00:46:21;;;;;;;792.72;733.10;;;;;;;8.41;73.63;101753.41;694427;28;46167;-67
2022/11/26 00:46:42;;;;;;;830.95;770.22;;;;;;;8.37;73.45;101742.06;693321;28;1065;-67
2022/11/26 00:47:04;;;;;;;850.85;789.67;;;;;;;8.40;73.60;101749.00;691926;28;46325;-67
2022/11/26 00:47:26;;;;;;;838.38;777.35;;;;;;;8.41;73.03;101759.63;692615;28;22383;-67
2022/11/26 00:47:47;;;;;;;821.00;760.47;;;;;;;8.43;73.91;101749.63;691752;28;45300;-68
2022/11/26 00:48:09;;;;;;;833.83;773.00;;;;;;;8.42;73.25;101755.97;690739;28;44387;-67
2022/11/26 00:48:30;;;;;;;792.95;733.33;;;;;;;8.43;73.31;101757.69;693494;28;21517;-68
2022/11/26 00:48:52;;;;;;;784.90;725.40;;;;;;;8.43;73.27;101762.19;695444;28;21619;-67
2022/11/26 00:49:14;;;;;;;776.92;717.63;;;;;;;8.44;73.58;101758.53;695002;28;44376;-67
2022/11/26 00:49:35;;;;;;;772.30;713.20;;;;;;;8.44;73.54;101758.53;694884;28;46475;-68
2022/11/26 00:49:56;;;;;;;819.30;758.95;;;;;;;8.44;73.35;101759.38;695547;28;22402;-68
2022/11/26 00:50:21;;;;;;;820.03;759.70;;;;;;;8.45;73.70;101763.78;695704;28;23481;-67
2022/11/26 00:50:45;;;;;;;823.70;763.17;;;;;;;8.44;73.68;101763.94;692930;28;92198;-67
2022/11/26 00:51:11;;;;;;;805.60;745.58;;;;;;;8.44;73.54;101761.22;691661;28;113475;-67
2022/11/26 00:51:32;;;;;;;818.58;758.25;;;;;;;8.43;73.36;101762.19;688459;28;138125;-67
2022/11/26 00:51:55;;;;;;;783.25;723.90;;;;;;;8.42;72.96;101761.34;692724;28;23455;-67
2022/11/26 00:52:23;;;;;;;804.78;744.80;;;;;;;8.44;73.50;101764.75;690896;28;69341;-67
2022/11/26 00:52:46;;;;;;;799.70;740.10;;;;;;;8.43;73.44;101757.69;688124;28;160756;-67
2022/11/26 00:53:10;;;;;;;817.53;757.40;;;;;;;8.47;74.05;101761.81;691118;28;67485;-67
2022/11/26 00:53:32;;;;;;;787.15;727.65;;;;;;;8.45;73.62;101761.09;692750;28;92566;-68
2022/11/26 00:53:55;;;;;;;767.38;708.33;;;;;;;8.44;73.19;101762.06;694127;28;45369;-67
2022/11/26 00:54:17;;;;;;;795.17;735.40;;;;;;;8.45;73.66;101754.88;693905;28;69312;-68
2022/11/26 00:54:38;;;;;;;824.15;763.75;;;;;;;8.43;73.14;101759.50;694889;28;46312;-68
2022/11/26 00:55:04;;;;;;;785.10;725.55;;;;;;;8.43;73.37;101756.78;695536;28;23194;-68
2022/11/26 00:55:28;;;;;;;773.22;714.08;;;;;;;8.44;73.29;101759.38;691666;28;137781;-68
2022/11/26 00:55:49;;;;;;;784.10;724.72;;;;;;;8.46;73.77;101759.25;693033;28;90326;-68
2022/11/26 00:56:13;;;;;;;803.55;743.50;;;;;;;8.48;74.11;101754.59;693845;28;46356;-67
2022/11/26 00:56:39;;;;;;;788.28;728.70;;;;;;;8.47;73.63;101760.97;693853;28;67539;-68
2022/11/26 00:57:01;;;;;;;765.83;706.72;;;;;;;8.46;73.75;101759.25;691357;28;138109;-67
2022/11/26 00:57:22;;;;;;;799.90;740.03;;;;;;;8.45;73.42;101760.25;694183;28;69392;-69
2022/11/26 00:57:44;;;;;;;829.55;769.00;;;;;;;8.46;73.62;101761.94;695609;28;23470;-68
2022/11/26 00:58:07;;;;;;;822.88;762.42;;;;;;;8.42;73.05;101755.97;692711;28;20416;-68
2022/11/26 00:58:29;;;;;;;795.28;735.47;;;;;;;8.45;73.71;101758.41;691007;28;67503;-68
2022/11/26 00:58:50;;;;;;;795.80;736.05;;;;;;;8.44;73.15;101763.94;690942;28;69273;-68
2022/11/26 00:59:19;;;;;;;797.53;737.67;;;;;;;8.44;73.20;101762.06;692457;28;23428;-67
2022/11/26 00:59:41;;;;;;;796.97;737.28;;;;;;;8.44;73.25;101764.75;688602;28;138837;-67
2022/11/26 01:00:14;;;;;;;795.75;736.17;;;;;;;8.44;73.24;101761.22;694066;28;46335;-68
2022/11/26 01:00:35;;;;;;;789.25;729.58;;;;;;;8.44;73.04;101767.47;688022;28;160737;-67
2022/11/26 01:00:59;;;;;;;776.13;716.92;;;;;;;8.43;72.79;101762.19;692119;28;46299;-67
2022/11/26 01:01:22;;;;;;;829.90;769.20;;;;;;;8.45;73.23;101761.09;689170;28;111042;-67
2022/11/26 01:01:43;;;;;;;833.10;772.35;;;;;;;8.44;72.86;101761.22;691365;28;69434;-67
2022/11/26 01:02:05;;;;;;;800.25;740.28;;;;;;;8.44;73.06;101763.94;694326;28;45235;-67
2022/11/26 01:02:27;;;;;;;779.53;720.17;;;;;;;8.41;72.59;101766.88;692162;28;22393;-67
2022/11/26 01:02:48;;;;;;;776.65;717.42;;;;;;;8.44;73.04;101775.53;690874;28;45161;-67
2022/11/26 01:03:10;;;;;;;780.65;721.38;;;;;;;8.44;73.09;101775.53;691988;28;45258;-68
2022/11/26 01:03:31;;;;;;;785.95;726.47;;;;;;;8.37;73.14;101754.66;692484;28;23496;-68
2022/11/26 01:03:53;;;;;;;803.38;743.42;;;;;;;8.47;73.37;101769.03;692751;28;23426;-67
2022/11/26 01:04:14;;;;;;;778.30;719.33;;;;;;;8.47;73.61;101767.19;692485;28;46386;-67
2022/11/26 01:04:36;;;;;;;846.75;785.72;;;;;;;8.47;73.82;101769.03;694690;28;44415;-67
2022/11/26 01:04:57;;;;;;;844.15;782.97;;;;;;;8.46;73.45;101770.00;694495;28;23370;-68
2022/11/26 01:05:20;;;;;;;861.65;800.05;;;;;;;8.45;73.34;101771.88;695646;28;23465;-68
2022/11/26 01:05:42;;;;;;;855.92;794.58;;;;;;;8.44;73.13;101770.16;693064;28;90740;-68
2022/11/26 01:06:03;;;;;;;851.38;790.17;;;;;;;8.45;73.25;101774.56;694904;28;21476;-68
2022/11/26 01:06:28;;;;;;;847.08;786.05;;;;;;;8.43;72.85;101776.53;694960;28;44372;-67
2022/11/26 01:06:50;;;;;;;851.78;790.60;;;;;;;8.44;72.65;101772.00;692162;28;115990;-68
2022/11/26 01:07:11;;;;;;;849.72;788.45;;;;;;;8.43;72.95;101779.25;694848;28;46340;-68
2022/11/26 01:07:33;;;;;;;839.50;778.47;;;;;;;8.43;72.73;101775.66;695605;28;23483;-68
2022/11/26 01:07:56;;;;;;;843.22;782.05;;;;;;;8.42;72.29;101776.66;694713;28;45266;-67
2022/11/26 01:08:22;;;;;;;851.25;789.83;;;;;;;8.41;72.66;101770.41;693988;28;67491;-67
2022/11/26 01:08:44;;;;;;;797.58;737.70;;;;;;;8.41;72.66;101769.56;691259;28;137972;-67
2022/11/26 01:09:06;;;;;;;785.90;726.40;;;;;;;8.39;72.47;101771.53;694799;28;46534;-68
2022/11/26 01:09:27;;;;;;;804.63;744.65;;;;;;;8.43;72.72;101778.34;694833;28;46583;-68
2022/11/26 01:09:50;;;;;;;817.33;756.92;;;;;;;8.43;72.39;101771.16;695319;28;23438;-68
2022/11/26 01:10:17;;;;;;;797.58;737.65;;;;;;;8.44;72.68;101777.38;694015;28;69400;-68
2022/11/26 01:10:38;;;;;;;789.17;729.53;;;;;;;8.45;72.79;101776.41;691564;28;136425;-67
2022/11/26 01:11:02;;;;;;;791.22;731.60;;;;;;;8.44;73.00;101777.38;694791;28;21561;-67
2022/11/26 01:11:23;;;;;;;830.00;769.33;;;;;;;8.45;72.73;101773.72;693287;28;92211;-67
2022/11/26 01:11:45;;;;;;;811.35;751.03;;;;;;;8.46;72.73;101780.78;691730;28;45230;-68
2022/11/26 01:12:11;;;;;;;783.97;724.45;;;;;;;8.46;72.88;101776.28;692935;28;22261;-68
2022/11/26 01:12:33;;;;;;;779.95;720.65;;;;;;;8.46;73.07;101780.78;688969;28;137831;-68
2022/11/26 01:12:55;;;;;;;782.90;723.45;;;;;;;8.45;72.63;101779.09;691741;28;45262;-68
2022/11/26 01:13:17;;;;;;;794.78;735.00;;;;;;;8.46;73.20;101775.41;693978;28;45026;-68
2022/11/26 01:13:38;;;;;;;780.30;721.22;;;;;;;8.43;73.46;101772.94;695678;28;21490;-67
2022/11/26 01:14:01;;;;;;;781.88;722.58;;;;;;;8.47;73.50;101777.13;695729;28;22198;-68
2022/11/26 01:14:22;;;;;;;786.47;726.95;;;;;;;8.47;73.43;101779.81;694040;28;69462;-68
2022/11/26 01:14:44;;;;;;;785.70;726.15;;;;;;;8.46;73.32;101780.78;694498;28;44140;-68
2022/11/26 01:15:06;;;;;;;816.30;755.72;;;;;;;8.47;73.61;101782.50;695340;28;22390;-68
2022/11/26 01:15:28;;;;;;;803.08;743.00;;;;;;;8.49;73.61;101783.19;694832;28;46232;-68
2022/11/26 01:15:49;;;;;;;809.35;749.25;;;;;;;8.49;73.25;101783.19;693932;28;69547;-68
2022/11/26 01:16:18;;;;;;;806.00;745.92;;;;;;;8.47;73.04;101783.34;694837;28;21540;-68
2022/11/26 01:16:41;;;;;;;790.10;730.40;;;;;;;8.47;73.00;101782.50;688730;28;137731;-69
2022/11/26 01:17:03;;;;;;;800.08;740.13;;;;;;;8.47;73.28;101785.19;691949;28;46269;-68
2022/11/26 01:17:24;;;;;;;790.53;730.83;;;;;;;8.49;73.50;101783.19;691176;28;69382;-68
2022/11/26 01:17:45;;;;;;;792.53;732.70;;;;;;;8.50;73.95;101786.75;692830;28;23386;-68
2022/11/26 01:18:13;;;;;;;803.40;743.40;;;;;;;8.49;73.69;101777.81;694848;28;22381;-68
2022/11/26 01:18:35;;;;;;;835.60;774.80;;;;;;;8.50;73.86;101786.75;688722;28;137674;-68
2022/11/26 01:18:58;;;;;;;797.17;737.38;;;;;;;8.49;73.53;101783.19;691448;28;45232;-68
2022/11/26 01:19:19;;;;;;;805.42;745.42;;;;;;;8.46;73.41;101778.97;691174;28;68458;-68
2022/11/26 01:19:41;;;;;;;851.80;790.60;;;;;;;8.47;73.07;101787.88;694372;28;22538;-68
2022/11/26 01:20:03;;;;;;;841.03;780.10;;;;;;;8.45;73.03;101781.78;694874;28;45256;-68
2022/11/26 01:20:27;;;;;;;805.30;745.35;;;;;;;8.44;73.05;101780.91;693984;28;69429;-68
2022/11/26 01:20:49;;;;;;;798.58;738.92;;;;;;;8.43;72.76;101783.72;693954;28;67491;-67
2022/11/26 01:21:10;;;;;;;788.38;728.85;;;;;;;8.44;72.77;101780.91;693645;28;45256;-68
2022/11/26 01:21:32;;;;;;;832.80;772.05;;;;;;;8.44;72.74;101780.09;695562;28;22397;-68
2022/11/26 01:21:54;;;;;;;842.55;781.58;;;;;;;8.45;72.85;101784.50;694018;28;69289;-68
2022/11/26 01:22:19;;;;;;;835.83;775.03;;;;;;;8.46;73.27;101786.16;695606;28;22396;-68
2022/11/26 01:22:40;;;;;;;816.95;756.70;;;;;;;8.45;73.20;101782.63;692409;28;113619;-68
2022/11/26 01:23:01;;;;;;;821.35;761.00;;;;;;;8.46;73.36;101789.72;695445;28;21536;-68
2022/11/26 01:23:23;;;;;;;815.85;755.53;;;;;;;8.47;73.73;101785.19;694205;28;45006;-68
2022/11/26 01:23:45;;;;;;;818.50;758.10;;;;;;;8.48;73.28;101787.75;694599;28;44216;-68
2022/11/26 01:24:07;;;;;;;828.72;768.15;;;;;;;8.47;73.54;101788.72;694914;28;44246;-68
2022/11/26 01:24:28;;;;;;;823.55;763.05;;;;;;;8.46;73.69;101789.72;695332;28;22735;-68
2022/11/26 01:24:49;;;;;;;825.33;764.67;;;;;;;8.48;73.77;101786.91;695327;28;21654;-68
2022/11/26 01:25:10;;;;;;;797.75;737.65;;;;;;;8.48;73.42;101794.97;694962;28;22231;-68
2022/11/26 01:25:33;;;;;;;770.70;711.42;;;;;;;8.47;73.67;101795.97;695075;28;23467;-68
2022/11/26 01:25:54;;;;;;;784.90;725.33;;;;;;;8.47;73.25;101794.09;694722;28;43751;-68
2022/11/26 01:26:17;;;;;;;769.78;710.67;;;;;;;8.47;72.96;101795.97;690193;28;46356;-68
2022/11/26 01:26:40;;;;;;;773.50;714.28;;;;;;;8.46;73.05;101794.25;690745;28;68593;-68
2022/11/26 01:27:02;;;;;;;805.00;744.88;;;;;;;8.46;72.97;101788.88;688366;28;68658;-68
2022/11/26 01:27:25;;;;;;;780.45;721.28;;;;;;;8.47;73.17;101795.97;689044;28;45229;-68
2022/11/26 01:27:46;;;;;;;776.00;716.83;;;;;;;8.46;73.00;101795.13;687730;28;69462;-68
2022/11/26 01:28:10;;;;;;;774.70;715.60;;;;;;;8.46;72.69;101795.13;688274;28;22417;-68
2022/11/26 01:28:32;;;;;;;781.50;722.20;;;;;;;8.45;72.91;101795.25;687655;28;90725;-67
2022/11/26 01:28:54;;;;;;;816.08;755.72;;;;;;;8.46;73.28;101795.13;690156;28;43858;-67
2022/11/26 01:29:16;;;;;;;837.03;776.20;;;;;;;8.47;72.91;101795.97;691669;28;46359;-68
2022/11/26 01:29:37;;;;;;;813.85;753.63;;;;;;;8.47;72.90;101802.19;691650;28;46288;-68
2022/11/26 01:30:00;;;;;;;787.88;728.35;;;;;;;8.47;73.49;101799.50;692969;28;45260;-68
2022/11/26 01:30:24;;;;;;;783.22;723.75;;;;;;;8.48;73.49;101803.06;691818;28;47862;-68
2022/11/26 01:30:45;;;;;;;794.08;734.35;;;;;;;8.50;73.45;101800.22;690184;28;90740;-68
2022/11/26 01:31:11;;;;;;;782.25;722.75;;;;;;;8.51;73.85;101801.91;690602;28;22281;-68
2022/11/26 01:31:33;;;;;;;780.42;721.05;;;;;;;8.50;73.64;101801.06;685071;28;159233;-68
2022/11/26 01:31:55;;;;;;;820.75;760.30;;;;;;;8.50;73.85;101795.69;688328;28;69463;-68
2022/11/26 01:32:16;;;;;;;852.97;791.72;;;;;;;8.51;74.08;101796.53;691641;28;23534;-68
2022/11/26 01:32:37;;;;;;;852.55;791.28;;;;;;;8.51;74.08;101797.41;693837;28;23474;-68
2022/11/26 01:32:59;;;;;;;814.85;754.55;;;;;;;8.52;74.18;101801.78;694036;28;44036;-68
2022/11/26 01:33:22;;;;;;;818.08;757.83;;;;;;;8.52;73.84;101806.31;691506;28;44364;-68
2022/11/26 01:33:43;;;;;;;832.25;771.55;;;;;;;8.51;74.27;101800.09;691565;28;46325;-68
2022/11/26 01:34:05;;;;;;;861.00;799.47;;;;;;;8.51;73.99;101802.78;691819;28;46281;-68
2022/11/26 01:34:26;;;;;;;846.40;785.40;;;;;;;8.51;74.14;101802.78;689131;28;44365;-68
2022/11/26 01:34:49;;;;;;;842.08;781.28;;;;;;;8.51;73.91;101802.78;689834;28;21541;-68
2022/11/26 01:35:10;;;;;;;841.33;780.38;;;;;;;8.52;74.24;101807.16;689835;28;46310;-68
2022/11/26 01:35:32;;;;;;;827.97;767.38;;;;;;;8.51;73.91;101804.59;692154;28;44382;-68
2022/11/26 01:35:53;;;;;;;826.25;765.55;;;;;;;8.51;74.23;101807.31;693087;28;47282;-67
2022/11/26 01:36:26;;;;;;;847.72;786.42;;;;;;;8.51;74.23;101801.91;694636;28;23383;-68
2022/11/26 01:36:47;;;;;;;842.03;780.95;;;;;;;8.50;74.13;101806.47;690743;28;158910;-68
2022/11/26 01:37:12;;;;;;;841.22;780.15;;;;;;;8.51;73.92;101807.31;694794;28;45310;-68
2022/11/26 01:37:33;;;;;;;823.90;763.25;;;;;;;8.50;74.12;101806.47;692031;28;116129;-67
2022/11/26 01:37:56;;;;;;;837.58;776.65;;;;;;;8.47;74.23;101801.34;695361;28;22402;-67
2022/11/26 01:38:17;;;;;;;813.65;753.42;;;;;;;8.52;74.34;101800.94;693844;28;69251;-68
2022/11/26 01:38:38;;;;;;;810.50;750.42;;;;;;;8.49;74.01;101804.75;695564;28;23460;-68
2022/11/26 01:39:01;;;;;;;820.75;760.35;;;;;;;8.48;73.98;101803.91;695246;28;23811;-68
2022/11/26 01:39:24;;;;;;;834.90;774.03;;;;;;;8.50;74.21;101803.75;693204;28;90699;-68
2022/11/26 01:39:45;;;;;;;823.40;762.78;;;;;;;8.45;73.64;101801.47;694460;28;46215;-68
2022/11/26 01:40:34;;;;;;;770.60;711.33;;;;;;;8.51;73.91;101812.69;695528;28;21626;-68
2022/11/26 01:41:10;;;;;;;825.42;764.72;;;;;;;8.53;74.39;101805.34;691188;28;138304;-68
2022/11/26 01:41:43;;;;;;;797.17;737.50;;;;;;;8.52;74.25;101807.16;690068;28;157428;-68
2022/11/26 01:42:07;;;;;;;806.00;745.88;;;;;;;8.51;74.39;101802.78;691420;28;137507;-67
2022/11/26 01:42:37;;;;;;;827.65;767.13;;;;;;;8.52;74.22;101806.31;692982;28;91497;-68
2022/11/26 01:43:00;;;;;;;802.00;742.05;;;;;;;8.52;74.51;101801.78;691523;28;137824;-68
2022/11/26 01:43:25;;;;;;;804.20;744.20;;;;;;;8.53;74.45;101810.72;693971;28;67483;-68
2022/11/26 01:43:50;;;;;;;804.83;744.80;;;;;;;8.51;74.52;101808.16;692363;28;115299;-68
2022/11/26 01:44:17;;;;;;;856.08;794.60;;;;;;;8.51;74.39;101802.78;693000;28;92274;-68
2022/11/26 01:44:38;;;;;;;862.97;801.38;;;;;;;8.50;73.94;101808.31;691587;28;137749;-68